sensor_id;sensor_type;location;lat;lon;timestamp;temperature;humidity
68177;DHT22;56478;50.982;7.032;2022-12-05T00:00:33;4.78;83.78
68177;DHT22;56478;50.982;7.032;2022-12-05T00:03:05;4.81;83.36
68177;DHT22;56478;50.982;7.032;2022-12-05T00:05:31;4.78;83.67
68177;DHT22;56478;50.982;7.032;2022-12-05T00:07:56;4.75;83.76
68177;DHT22;56478;50.982;7.032;2022-12-05T00:10:22;4.79;83.39
68177;DHT22;56478;50.982;7.032;2022-12-05T00:12:47;4.78;83.44
68177;DHT22;56478;50.982;7.032;2022-12-05T00:15:13;4.81;83.67
68177;DHT22;56478;50.982;7.032;2022-12-05T00:17:39;4.79;83.07
68177;DHT22;56478;50.982;7.032;2022-12-05T00:20:06;4.86;82.58
68177;DHT22;56478;50.982;7.032;2022-12-05T00:22:35;4.85;83.05
68177;DHT22;56478;50.982;7.032;2022-12-05T00:25:00;4.81;82.81
68177;DHT22;56478;50.982;7.032;2022-12-05T00:27:26;4.85;82.48
68177;DHT22;56478;50.982;7.032;2022-12-05T00:29:51;4.81;83.28
68177;DHT22;56478;50.982;7.032;2022-12-05T00:32:17;4.81;82.83
68177;DHT22;56478;50.982;7.032;2022-12-05T00:34:42;4.84;83.15
68177;DHT22;56478;50.982;7.032;2022-12-05T00:37:08;4.85;82.86
68177;DHT22;56478;50.982;7.032;2022-12-05T00:39:33;4.85;82.77
68177;DHT22;56478;50.982;7.032;2022-12-05T00:41:59;4.84;82.11
68177;DHT22;56478;50.982;7.032;2022-12-05T00:44:24;4.84;82.65
68177;DHT22;56478;50.982;7.032;2022-12-05T00:46:50;4.86;83.06
68177;DHT22;56478;50.982;7.032;2022-12-05T00:49:15;4.82;82.50
68177;DHT22;56478;50.982;7.032;2022-12-05T00:51:43;4.81;82.74
68177;DHT22;56478;50.982;7.032;2022-12-05T00:54:14;4.79;82.59
68177;DHT22;56478;50.982;7.032;2022-12-05T00:56:40;4.81;82.87
68177;DHT22;56478;50.982;7.032;2022-12-05T00:59:06;4.75;83.08
68177;DHT22;56478;50.982;7.032;2022-12-05T01:01:35;4.74;82.73
68177;DHT22;56478;50.982;7.032;2022-12-05T01:04:06;4.78;83.23
68177;DHT22;56478;50.982;7.032;2022-12-05T01:06:32;4.74;83.32
68177;DHT22;56478;50.982;7.032;2022-12-05T01:08:58;4.79;82.77
68177;DHT22;56478;50.982;7.032;2022-12-05T01:11:25;4.79;83.23
68177;DHT22;56478;50.982;7.032;2022-12-05T01:13:51;4.78;83.17
68177;DHT22;56478;50.982;7.032;2022-12-05T01:16:25;4.75;83.10
68177;DHT22;56478;50.982;7.032;2022-12-05T01:18:52;4.77;83.19
68177;DHT22;56478;50.982;7.032;2022-12-05T01:21:18;4.84;82.96
68177;DHT22;56478;50.982;7.032;2022-12-05T01:23:44;4.85;82.87
68177;DHT22;56478;50.982;7.032;2022-12-05T01:26:12;4.88;82.85
68177;DHT22;56478;50.982;7.032;2022-12-05T01:28:38;4.89;82.41
68177;DHT22;56478;50.982;7.032;2022-12-05T01:31:07;4.85;82.81
68177;DHT22;56478;50.982;7.032;2022-12-05T01:33:33;4.86;82.62
68177;DHT22;56478;50.982;7.032;2022-12-05T01:36:00;4.91;83.27
68177;DHT22;56478;50.982;7.032;2022-12-05T01:38:26;4.86;82.29
68177;DHT22;56478;50.982;7.032;2022-12-05T01:41:02;4.88;82.78
68177;DHT22;56478;50.982;7.032;2022-12-05T01:43:28;4.84;82.51
68177;DHT22;56478;50.982;7.032;2022-12-05T01:45:54;4.85;82.44
68177;DHT22;56478;50.982;7.032;2022-12-05T01:48:27;4.89;82.93
68177;DHT22;56478;50.982;7.032;2022-12-05T01:50:55;4.92;82.85
68177;DHT22;56478;50.982;7.032;2022-12-05T01:53:21;4.91;82.70
68177;DHT22;56478;50.982;7.032;2022-12-05T01:55:49;4.89;83.49
68177;DHT22;56478;50.982;7.032;2022-12-05T01:58:15;4.85;83.23
68177;DHT22;56478;50.982;7.032;2022-12-05T02:00:41;4.91;82.99
68177;DHT22;56478;50.982;7.032;2022-12-05T02:03:08;4.89;83.25
68177;DHT22;56478;50.982;7.032;2022-12-05T02:05:36;4.92;83.42
68177;DHT22;56478;50.982;7.032;2022-12-05T02:08:06;4.93;83.31
68177;DHT22;56478;50.982;7.032;2022-12-05T02:10:40;4.88;83.69
68177;DHT22;56478;50.982;7.032;2022-12-05T02:15:45;4.86;83.81
68177;DHT22;56478;50.982;7.032;2022-12-05T02:21:47;4.85;84.24
68177;DHT22;56478;50.982;7.032;2022-12-05T02:23:57;4.84;84.61
68177;DHT22;56478;50.982;7.032;2022-12-05T02:40:43;4.78;85.38
68177;DHT22;56478;50.982;7.032;2022-12-05T02:43:21;4.77;85.44
68177;DHT22;56478;50.982;7.032;2022-12-05T02:45:52;4.75;86.10
68177;DHT22;56478;50.982;7.032;2022-12-05T02:48:19;4.77;85.77
68177;DHT22;56478;50.982;7.032;2022-12-05T02:50:46;4.72;86.00
68177;DHT22;56478;50.982;7.032;2022-12-05T02:53:14;4.69;85.33
68177;DHT22;56478;50.982;7.032;2022-12-05T02:55:41;4.61;85.18
68177;DHT22;56478;50.982;7.032;2022-12-05T02:58:14;4.68;85.20
68177;DHT22;56478;50.982;7.032;2022-12-05T03:00:43;4.67;85.89
68177;DHT22;56478;50.982;7.032;2022-12-05T03:03:17;4.47;84.96
68177;DHT22;56478;50.982;7.032;2022-12-05T03:06:06;4.56;85.06
68177;DHT22;56478;50.982;7.032;2022-12-05T03:08:42;4.53;85.10
68177;DHT22;56478;50.982;7.032;2022-12-05T03:11:09;4.56;85.83
68177;DHT22;56478;50.982;7.032;2022-12-05T03:13:46;4.41;84.84
68177;DHT22;56478;50.982;7.032;2022-12-05T03:16:33;4.33;85.55
68177;DHT22;56478;50.982;7.032;2022-12-05T03:19:14;4.34;85.54
68177;DHT22;56478;50.982;7.032;2022-12-05T03:21:46;4.33;85.24
68177;DHT22;56478;50.982;7.032;2022-12-05T03:24:13;4.37;85.51
68177;DHT22;56478;50.982;7.032;2022-12-05T03:26:54;4.33;84.80
68177;DHT22;56478;50.982;7.032;2022-12-05T03:29:28;4.22;84.94
68177;DHT22;56478;50.982;7.032;2022-12-05T03:32:09;4.30;85.97
68177;DHT22;56478;50.982;7.032;2022-12-05T03:37:55;4.22;85.03
68177;DHT22;56478;50.982;7.032;2022-12-05T03:43:30;4.19;84.63
68177;DHT22;56478;50.982;7.032;2022-12-05T03:46:09;4.06;84.79
68177;DHT22;56478;50.982;7.032;2022-12-05T03:51:27;4.05;84.76
68177;DHT22;56478;50.982;7.032;2022-12-05T03:54:03;4.02;84.57
68177;DHT22;56478;50.982;7.032;2022-12-05T03:56:43;3.91;84.33
68177;DHT22;56478;50.982;7.032;2022-12-05T03:59:18;3.94;84.44
68177;DHT22;56478;50.982;7.032;2022-12-05T04:01:46;3.92;84.94
68177;DHT22;56478;50.982;7.032;2022-12-05T04:04:23;3.88;84.89
68177;DHT22;56478;50.982;7.032;2022-12-05T04:06:52;3.88;84.97
68177;DHT22;56478;50.982;7.032;2022-12-05T04:09:23;3.84;84.30
68177;DHT22;56478;50.982;7.032;2022-12-05T04:11:55;3.77;84.36
68177;DHT22;56478;50.982;7.032;2022-12-05T04:14:29;3.74;85.00
68177;DHT22;56478;50.982;7.032;2022-12-05T04:17:02;3.77;85.41
68177;DHT22;56478;50.982;7.032;2022-12-05T04:22:28;3.77;85.20
68177;DHT22;56478;50.982;7.032;2022-12-05T04:24:56;3.70;84.92
68177;DHT22;56478;50.982;7.032;2022-12-05T04:27:53;3.74;84.78
68177;DHT22;56478;50.982;7.032;2022-12-05T04:30:24;3.71;85.16
68177;DHT22;56478;50.982;7.032;2022-12-05T04:33:02;3.75;84.63
68177;DHT22;56478;50.982;7.032;2022-12-05T04:35:58;3.75;85.09
68177;DHT22;56478;50.982;7.032;2022-12-05T04:41:04;3.66;85.57
68177;DHT22;56478;50.982;7.032;2022-12-05T04:43:34;3.67;85.38
68177;DHT22;56478;50.982;7.032;2022-12-05T04:46:03;3.70;85.48
68177;DHT22;56478;50.982;7.032;2022-12-05T04:48:30;3.69;85.11
68177;DHT22;56478;50.982;7.032;2022-12-05T04:50:59;3.54;84.97
68177;DHT22;56478;50.982;7.032;2022-12-05T04:53:28;3.56;85.59
68177;DHT22;56478;50.982;7.032;2022-12-05T04:55:57;3.59;86.05
68177;DHT22;56478;50.982;7.032;2022-12-05T04:58:24;3.57;85.32
68177;DHT22;56478;50.982;7.032;2022-12-05T05:01:10;3.59;85.72
68177;DHT22;56478;50.982;7.032;2022-12-05T05:03:49;3.56;85.32
68177;DHT22;56478;50.982;7.032;2022-12-05T05:06:15;3.60;85.14
68177;DHT22;56478;50.982;7.032;2022-12-05T05:08:51;3.50;84.63
68177;DHT22;56478;50.982;7.032;2022-12-05T05:11:22;3.47;85.07
68177;DHT22;56478;50.982;7.032;2022-12-05T05:13:48;3.50;85.63
68177;DHT22;56478;50.982;7.032;2022-12-05T05:16:15;3.42;85.11
68177;DHT22;56478;50.982;7.032;2022-12-05T05:18:46;3.46;84.96
68177;DHT22;56478;50.982;7.032;2022-12-05T05:21:23;3.52;85.36
68177;DHT22;56478;50.982;7.032;2022-12-05T05:23:49;3.44;85.19
68177;DHT22;56478;50.982;7.032;2022-12-05T05:26:15;3.46;84.46
68177;DHT22;56478;50.982;7.032;2022-12-05T05:28:41;3.43;85.07
68177;DHT22;56478;50.982;7.032;2022-12-05T05:31:06;3.40;84.62
68177;DHT22;56478;50.982;7.032;2022-12-05T05:33:33;3.49;84.27
68177;DHT22;56478;50.982;7.032;2022-12-05T05:36:10;3.42;85.13
68177;DHT22;56478;50.982;7.032;2022-12-05T05:38:37;3.43;85.26
68177;DHT22;56478;50.982;7.032;2022-12-05T05:41:04;3.39;85.43
68177;DHT22;56478;50.982;7.032;2022-12-05T05:43:30;3.42;84.93
68177;DHT22;56478;50.982;7.032;2022-12-05T05:45:55;3.35;84.84
68177;DHT22;56478;50.982;7.032;2022-12-05T05:48:21;3.40;84.70
68177;DHT22;56478;50.982;7.032;2022-12-05T05:50:46;3.39;85.26
68177;DHT22;56478;50.982;7.032;2022-12-05T05:53:12;3.43;84.84
68177;DHT22;56478;50.982;7.032;2022-12-05T05:55:38;3.40;85.04
68177;DHT22;56478;50.982;7.032;2022-12-05T05:58:05;3.47;84.93
68177;DHT22;56478;50.982;7.032;2022-12-05T06:00:30;3.49;85.37
68177;DHT22;56478;50.982;7.032;2022-12-05T06:02:56;3.50;84.70
68177;DHT22;56478;50.982;7.032;2022-12-05T06:05:21;3.43;84.51
68177;DHT22;56478;50.982;7.032;2022-12-05T06:07:47;3.37;85.28
68177;DHT22;56478;50.982;7.032;2022-12-05T06:10:12;3.32;85.27
68177;DHT22;56478;50.982;7.032;2022-12-05T06:12:38;3.32;85.20
68177;DHT22;56478;50.982;7.032;2022-12-05T06:15:04;3.36;84.45
68177;DHT22;56478;50.982;7.032;2022-12-05T06:17:30;3.37;85.04
68177;DHT22;56478;50.982;7.032;2022-12-05T06:19:55;3.33;84.93
68177;DHT22;56478;50.982;7.032;2022-12-05T06:22:21;3.30;85.68
68177;DHT22;56478;50.982;7.032;2022-12-05T06:24:46;3.30;85.09
68177;DHT22;56478;50.982;7.032;2022-12-05T06:27:12;3.33;85.35
68177;DHT22;56478;50.982;7.032;2022-12-05T06:29:38;3.30;85.82
68177;DHT22;56478;50.982;7.032;2022-12-05T06:32:04;3.32;84.94
68177;DHT22;56478;50.982;7.032;2022-12-05T06:34:29;3.29;85.67
68177;DHT22;56478;50.982;7.032;2022-12-05T06:36:57;3.33;84.82
68177;DHT22;56478;50.982;7.032;2022-12-05T06:39:23;3.26;84.95
68177;DHT22;56478;50.982;7.032;2022-12-05T06:41:49;3.25;84.85
68177;DHT22;56478;50.982;7.032;2022-12-05T06:44:15;3.30;84.63
68177;DHT22;56478;50.982;7.032;2022-12-05T06:46:40;3.29;84.82
68177;DHT22;56478;50.982;7.032;2022-12-05T06:49:06;3.26;85.36
68177;DHT22;56478;50.982;7.032;2022-12-05T06:51:31;3.25;85.59
68177;DHT22;56478;50.982;7.032;2022-12-05T06:53:57;3.22;84.98
68177;DHT22;56478;50.982;7.032;2022-12-05T06:56:22;3.26;84.75
68177;DHT22;56478;50.982;7.032;2022-12-05T06:58:49;3.25;84.98
68177;DHT22;56478;50.982;7.032;2022-12-05T07:01:18;3.26;85.58
68177;DHT22;56478;50.982;7.032;2022-12-05T07:04:05;3.26;85.14
68177;DHT22;56478;50.982;7.032;2022-12-05T07:06:32;3.26;85.56
68177;DHT22;56478;50.982;7.032;2022-12-05T07:08:58;3.33;85.23
68177;DHT22;56478;50.982;7.032;2022-12-05T07:11:23;3.25;85.16
68177;DHT22;56478;50.982;7.032;2022-12-05T07:13:49;3.26;85.16
68177;DHT22;56478;50.982;7.032;2022-12-05T07:16:14;3.26;85.14
68177;DHT22;56478;50.982;7.032;2022-12-05T07:18:40;3.29;85.48
68177;DHT22;56478;50.982;7.032;2022-12-05T07:21:08;3.28;84.91
68177;DHT22;56478;50.982;7.032;2022-12-05T07:23:35;3.29;84.99
68177;DHT22;56478;50.982;7.032;2022-12-05T07:26:08;3.28;84.81
68177;DHT22;56478;50.982;7.032;2022-12-05T07:28:34;3.25;84.99
68177;DHT22;56478;50.982;7.032;2022-12-05T07:31:00;3.30;85.02
68177;DHT22;56478;50.982;7.032;2022-12-05T07:33:26;3.35;85.43
68177;DHT22;56478;50.982;7.032;2022-12-05T07:35:52;3.39;85.56
68177;DHT22;56478;50.982;7.032;2022-12-05T07:38:17;3.36;85.07
68177;DHT22;56478;50.982;7.032;2022-12-05T07:40:43;3.40;84.95
68177;DHT22;56478;50.982;7.032;2022-12-05T07:43:08;3.42;84.62
68177;DHT22;56478;50.982;7.032;2022-12-05T07:45:34;3.37;84.95
68177;DHT22;56478;50.982;7.032;2022-12-05T07:48:00;3.36;85.08
68177;DHT22;56478;50.982;7.032;2022-12-05T07:50:25;3.40;85.73
68177;DHT22;56478;50.982;7.032;2022-12-05T07:52:52;3.44;85.50
68177;DHT22;56478;50.982;7.032;2022-12-05T07:55:17;3.46;84.95
68177;DHT22;56478;50.982;7.032;2022-12-05T07:57:43;3.47;84.76
68177;DHT22;56478;50.982;7.032;2022-12-05T08:00:08;3.44;84.75
68177;DHT22;56478;50.982;7.032;2022-12-05T08:02:34;3.33;85.51
68177;DHT22;56478;50.982;7.032;2022-12-05T08:05:00;3.42;85.82
68177;DHT22;56478;50.982;7.032;2022-12-05T08:07:25;3.49;85.09
68177;DHT22;56478;50.982;7.032;2022-12-05T08:09:50;3.42;85.57
68177;DHT22;56478;50.982;7.032;2022-12-05T08:12:16;3.52;85.13
68177;DHT22;56478;50.982;7.032;2022-12-05T08:14:41;3.47;84.79
68177;DHT22;56478;50.982;7.032;2022-12-05T08:17:07;3.50;84.66
68177;DHT22;56478;50.982;7.032;2022-12-05T08:19:32;3.52;84.53
68177;DHT22;56478;50.982;7.032;2022-12-05T08:21:58;3.56;84.85
68177;DHT22;56478;50.982;7.032;2022-12-05T08:24:23;3.53;84.44
68177;DHT22;56478;50.982;7.032;2022-12-05T08:26:49;3.46;85.00
68177;DHT22;56478;50.982;7.032;2022-12-05T08:29:14;3.44;84.98
68177;DHT22;56478;50.982;7.032;2022-12-05T08:31:43;3.49;84.78
68177;DHT22;56478;50.982;7.032;2022-12-05T08:34:12;3.46;84.89
68177;DHT22;56478;50.982;7.032;2022-12-05T08:36:37;3.53;84.30
68177;DHT22;56478;50.982;7.032;2022-12-05T08:39:05;3.50;84.48
68177;DHT22;56478;50.982;7.032;2022-12-05T08:41:32;3.52;84.99
68177;DHT22;56478;50.982;7.032;2022-12-05T08:44:03;3.53;85.39
68177;DHT22;56478;50.982;7.032;2022-12-05T08:46:34;3.60;85.97
68177;DHT22;56478;50.982;7.032;2022-12-05T08:49:15;3.69;85.50
68177;DHT22;56478;50.982;7.032;2022-12-05T08:51:42;3.67;85.13
68177;DHT22;56478;50.982;7.032;2022-12-05T08:54:08;3.69;85.12
68177;DHT22;56478;50.982;7.032;2022-12-05T08:56:42;3.69;85.94
68177;DHT22;56478;50.982;7.032;2022-12-05T08:59:08;3.78;85.55
68177;DHT22;56478;50.982;7.032;2022-12-05T09:01:34;3.84;85.91
68177;DHT22;56478;50.982;7.032;2022-12-05T09:04:03;3.85;85.90
68177;DHT22;56478;50.982;7.032;2022-12-05T09:06:30;3.88;85.59
68177;DHT22;56478;50.982;7.032;2022-12-05T09:09:02;3.88;86.41
68177;DHT22;56478;50.982;7.032;2022-12-05T09:11:32;3.92;85.79
68177;DHT22;56478;50.982;7.032;2022-12-05T09:13:58;3.99;84.47
68177;DHT22;56478;50.982;7.032;2022-12-05T09:16:30;3.99;84.86
68177;DHT22;56478;50.982;7.032;2022-12-05T09:19:02;3.99;85.00
68177;DHT22;56478;50.982;7.032;2022-12-05T09:21:35;3.98;84.99
68177;DHT22;56478;50.982;7.032;2022-12-05T09:24:00;4.02;84.77
68177;DHT22;56478;50.982;7.032;2022-12-05T09:26:27;4.01;84.76
68177;DHT22;56478;50.982;7.032;2022-12-05T09:28:54;4.01;84.70
68177;DHT22;56478;50.982;7.032;2022-12-05T09:31:27;4.01;85.13
68177;DHT22;56478;50.982;7.032;2022-12-05T09:34:08;3.97;85.16
68177;DHT22;56478;50.982;7.032;2022-12-05T09:36:34;4.01;85.30
68177;DHT22;56478;50.982;7.032;2022-12-05T09:39:03;4.05;85.45
68177;DHT22;56478;50.982;7.032;2022-12-05T09:41:41;4.09;85.52
68177;DHT22;56478;50.982;7.032;2022-12-05T09:47:19;4.15;84.30
68177;DHT22;56478;50.982;7.032;2022-12-05T09:52:38;3.98;83.41
68177;DHT22;56478;50.982;7.032;2022-12-05T09:55:13;4.02;83.38
68177;DHT22;56478;50.982;7.032;2022-12-05T09:57:45;4.05;84.58
68177;DHT22;56478;50.982;7.032;2022-12-05T10:00:13;4.05;84.11
68177;DHT22;56478;50.982;7.032;2022-12-05T10:08:20;4.25;84.24
68177;DHT22;56478;50.982;7.032;2022-12-05T10:11:00;4.20;84.18
68177;DHT22;56478;50.982;7.032;2022-12-05T10:13:47;4.16;84.71
68177;DHT22;56478;50.982;7.032;2022-12-05T10:16:50;4.15;84.67
68177;DHT22;56478;50.982;7.032;2022-12-05T10:19:37;4.10;84.90
68177;DHT22;56478;50.982;7.032;2022-12-05T10:22:41;4.15;85.01
68177;DHT22;56478;50.982;7.032;2022-12-05T10:25:31;4.26;84.15
68177;DHT22;56478;50.982;7.032;2022-12-05T10:28:04;4.28;84.15
68177;DHT22;56478;50.982;7.032;2022-12-05T10:30:32;4.23;83.24
68177;DHT22;56478;50.982;7.032;2022-12-05T10:33:21;4.17;83.60
68177;DHT22;56478;50.982;7.032;2022-12-05T10:35:54;4.23;84.11
68177;DHT22;56478;50.982;7.032;2022-12-05T10:38:26;4.32;85.25
68177;DHT22;56478;50.982;7.032;2022-12-05T10:41:28;4.28;84.24
68177;DHT22;56478;50.982;7.032;2022-12-05T10:49:12;4.23;83.62
68177;DHT22;56478;50.982;7.032;2022-12-05T10:51:38;4.30;84.03
68177;DHT22;56478;50.982;7.032;2022-12-05T10:54:25;4.37;84.18
68177;DHT22;56478;50.982;7.032;2022-12-05T10:56:53;4.44;84.14
68177;DHT22;56478;50.982;7.032;2022-12-05T10:59:20;4.50;84.13
68177;DHT22;56478;50.982;7.032;2022-12-05T11:01:57;4.58;84.75
68177;DHT22;56478;50.982;7.032;2022-12-05T11:04:26;4.56;84.51
68177;DHT22;56478;50.982;7.032;2022-12-05T11:07:04;4.65;83.73
68177;DHT22;56478;50.982;7.032;2022-12-05T11:09:35;4.64;83.47
68177;DHT22;56478;50.982;7.032;2022-12-05T11:12:28;4.58;83.44
68177;DHT22;56478;50.982;7.032;2022-12-05T11:17:41;4.56;85.12
68177;DHT22;56478;50.982;7.032;2022-12-05T11:22:52;4.51;85.00
68177;DHT22;56478;50.982;7.032;2022-12-05T11:27:58;4.58;85.33
68177;DHT22;56478;50.982;7.032;2022-12-05T11:30:26;4.56;85.22
68177;DHT22;56478;50.982;7.032;2022-12-05T11:33:19;4.56;84.80
68177;DHT22;56478;50.982;7.032;2022-12-05T11:35:45;4.47;84.76
68177;DHT22;56478;50.982;7.032;2022-12-05T11:38:11;4.50;85.96
68177;DHT22;56478;50.982;7.032;2022-12-05T11:55:17;4.64;85.81
68177;DHT22;56478;50.982;7.032;2022-12-05T12:00:40;4.71;85.97
68177;DHT22;56478;50.982;7.032;2022-12-05T12:03:34;4.72;85.54
68177;DHT22;56478;50.982;7.032;2022-12-05T12:09:14;4.69;86.24
68177;DHT22;56478;50.982;7.032;2022-12-05T12:14:43;4.71;85.81
68177;DHT22;56478;50.982;7.032;2022-12-05T12:20:09;4.71;85.83
68177;DHT22;56478;50.982;7.032;2022-12-05T12:23:07;4.75;85.56
68177;DHT22;56478;50.982;7.032;2022-12-05T12:29:19;4.82;85.69
68177;DHT22;56478;50.982;7.032;2022-12-05T12:31:44;4.81;86.12
68177;DHT22;56478;50.982;7.032;2022-12-05T12:40:52;4.81;86.49
68177;DHT22;56478;50.982;7.032;2022-12-05T12:46:24;4.75;86.69
68177;DHT22;56478;50.982;7.032;2022-12-05T12:51:48;4.74;85.52
68177;DHT22;56478;50.982;7.032;2022-12-05T12:54:32;4.77;86.23
68177;DHT22;56478;50.982;7.032;2022-12-05T12:59:40;4.75;85.73
68177;DHT22;56478;50.982;7.032;2022-12-05T13:07:35;4.85;85.72
68177;DHT22;56478;50.982;7.032;2022-12-05T13:10:16;4.75;85.25
68177;DHT22;56478;50.982;7.032;2022-12-05T13:12:47;4.79;86.00
68177;DHT22;56478;50.982;7.032;2022-12-05T13:15:17;4.85;85.64
68177;DHT22;56478;50.982;7.032;2022-12-05T13:17:46;4.85;86.56
68177;DHT22;56478;50.982;7.032;2022-12-05T13:20:16;4.81;85.56
68177;DHT22;56478;50.982;7.032;2022-12-05T13:22:43;4.75;86.11
68177;DHT22;56478;50.982;7.032;2022-12-05T13:25:14;4.91;86.78
68177;DHT22;56478;50.982;7.032;2022-12-05T13:27:53;4.84;85.75
68177;DHT22;56478;50.982;7.032;2022-12-05T13:30:20;4.79;86.29
68177;DHT22;56478;50.982;7.032;2022-12-05T13:32:45;4.84;85.33
68177;DHT22;56478;50.982;7.032;2022-12-05T13:35:23;4.85;85.72
68177;DHT22;56478;50.982;7.032;2022-12-05T13:38:29;4.71;85.75
68177;DHT22;56478;50.982;7.032;2022-12-05T13:41:13;4.67;85.69
68177;DHT22;56478;50.982;7.032;2022-12-05T13:43:58;4.68;85.68
68177;DHT22;56478;50.982;7.032;2022-12-05T13:46:38;4.58;85.72
68177;DHT22;56478;50.982;7.032;2022-12-05T13:49:17;4.60;85.51
68177;DHT22;56478;50.982;7.032;2022-12-05T13:51:44;4.61;86.36
68177;DHT22;56478;50.982;7.032;2022-12-05T13:54:11;4.51;86.25
68177;DHT22;56478;50.982;7.032;2022-12-05T13:59:12;4.58;85.99
68177;DHT22;56478;50.982;7.032;2022-12-05T14:01:46;4.53;86.45
68177;DHT22;56478;50.982;7.032;2022-12-05T14:04:44;4.51;85.72
68177;DHT22;56478;50.982;7.032;2022-12-05T14:07:09;4.53;86.04
68177;DHT22;56478;50.982;7.032;2022-12-05T14:09:51;4.54;85.79
68177;DHT22;56478;50.982;7.032;2022-12-05T14:17:44;4.54;86.34
68177;DHT22;56478;50.982;7.032;2022-12-05T14:34:21;4.41;86.39
68177;DHT22;56478;50.982;7.032;2022-12-05T14:36:57;4.34;85.98
68177;DHT22;56478;50.982;7.032;2022-12-05T14:42:04;4.46;85.87
68177;DHT22;56478;50.982;7.032;2022-12-05T14:44:32;4.47;86.22
68177;DHT22;56478;50.982;7.032;2022-12-05T14:47:02;4.46;86.67
68177;DHT22;56478;50.982;7.032;2022-12-05T14:52:23;4.32;86.26
68177;DHT22;56478;50.982;7.032;2022-12-05T14:54:53;4.39;85.94
68177;DHT22;56478;50.982;7.032;2022-12-05T14:57:21;4.36;86.34
68177;DHT22;56478;50.982;7.032;2022-12-05T14:59:54;4.33;85.92
68177;DHT22;56478;50.982;7.032;2022-12-05T15:02:24;4.25;86.71
68177;DHT22;56478;50.982;7.032;2022-12-05T15:07:44;4.32;86.27
68177;DHT22;56478;50.982;7.032;2022-12-05T15:10:33;4.29;86.79
68177;DHT22;56478;50.982;7.032;2022-12-05T15:13:03;4.28;86.75
68177;DHT22;56478;50.982;7.032;2022-12-05T15:18:16;4.23;86.71
68177;DHT22;56478;50.982;7.032;2022-12-05T15:21:01;4.20;87.18
68177;DHT22;56478;50.982;7.032;2022-12-05T15:26:40;4.22;86.88
68177;DHT22;56478;50.982;7.032;2022-12-05T15:29:16;4.15;86.99
68177;DHT22;56478;50.982;7.032;2022-12-05T15:37:08;4.20;86.45
68177;DHT22;56478;50.982;7.032;2022-12-05T15:39:54;4.10;87.36
68177;DHT22;56478;50.982;7.032;2022-12-05T15:42:22;4.19;86.50
68177;DHT22;56478;50.982;7.032;2022-12-05T15:44:47;4.20;86.42
68177;DHT22;56478;50.982;7.032;2022-12-05T15:47:24;4.28;87.18
68177;DHT22;56478;50.982;7.032;2022-12-05T15:49:50;4.19;86.36
68177;DHT22;56478;50.982;7.032;2022-12-05T15:52:44;4.08;86.50
68177;DHT22;56478;50.982;7.032;2022-12-05T15:55:15;4.03;86.59
68177;DHT22;56478;50.982;7.032;2022-12-05T15:57:46;4.03;86.53
68177;DHT22;56478;50.982;7.032;2022-12-05T16:00:16;4.01;86.71
68177;DHT22;56478;50.982;7.032;2022-12-05T16:05:45;4.02;86.41
68177;DHT22;56478;50.982;7.032;2022-12-05T16:08:13;4.02;86.47
68177;DHT22;56478;50.982;7.032;2022-12-05T16:10:39;4.02;86.43
68177;DHT22;56478;50.982;7.032;2022-12-05T16:13:07;3.88;86.16
68177;DHT22;56478;50.982;7.032;2022-12-05T16:15:36;3.77;86.50
68177;DHT22;56478;50.982;7.032;2022-12-05T16:18:03;3.84;86.15
68177;DHT22;56478;50.982;7.032;2022-12-05T16:20:33;3.91;86.84
68177;DHT22;56478;50.982;7.032;2022-12-05T16:23:00;3.95;86.57
68177;DHT22;56478;50.982;7.032;2022-12-05T16:25:29;3.91;86.40
68177;DHT22;56478;50.982;7.032;2022-12-05T16:28:16;3.91;86.31
68177;DHT22;56478;50.982;7.032;2022-12-05T16:30:59;3.89;86.19
68177;DHT22;56478;50.982;7.032;2022-12-05T16:33:27;3.92;86.30
68177;DHT22;56478;50.982;7.032;2022-12-05T16:35:53;3.87;86.59
68177;DHT22;56478;50.982;7.032;2022-12-05T16:38:23;3.97;86.19
68177;DHT22;56478;50.982;7.032;2022-12-05T16:40:59;3.81;86.45
68177;DHT22;56478;50.982;7.032;2022-12-05T16:43:26;3.82;86.59
68177;DHT22;56478;50.982;7.032;2022-12-05T16:45:55;3.82;86.27
68177;DHT22;56478;50.982;7.032;2022-12-05T16:48:24;3.74;86.53
68177;DHT22;56478;50.982;7.032;2022-12-05T16:50:51;3.81;86.02
68177;DHT22;56478;50.982;7.032;2022-12-05T16:53:21;3.73;86.18
68177;DHT22;56478;50.982;7.032;2022-12-05T16:55:51;3.67;86.38
68177;DHT22;56478;50.982;7.032;2022-12-05T16:58:22;3.70;86.45
68177;DHT22;56478;50.982;7.032;2022-12-05T17:00:49;3.60;86.19
68177;DHT22;56478;50.982;7.032;2022-12-05T17:03:15;3.60;86.11
68177;DHT22;56478;50.982;7.032;2022-12-05T17:05:41;3.57;86.51
68177;DHT22;56478;50.982;7.032;2022-12-05T17:08:07;3.61;86.26
68177;DHT22;56478;50.982;7.032;2022-12-05T17:10:32;3.61;86.62
68177;DHT22;56478;50.982;7.032;2022-12-05T17:12:58;3.59;86.16
68177;DHT22;56478;50.982;7.032;2022-12-05T17:15:25;3.63;86.53
68177;DHT22;56478;50.982;7.032;2022-12-05T17:17:51;3.63;86.81
68177;DHT22;56478;50.982;7.032;2022-12-05T17:20:17;3.60;86.17
68177;DHT22;56478;50.982;7.032;2022-12-05T17:22:42;3.57;86.58
68177;DHT22;56478;50.982;7.032;2022-12-05T17:25:26;3.57;86.54
68177;DHT22;56478;50.982;7.032;2022-12-05T17:27:53;3.49;86.76
68177;DHT22;56478;50.982;7.032;2022-12-05T17:30:18;3.46;86.54
68177;DHT22;56478;50.982;7.032;2022-12-05T17:32:44;3.53;86.83
68177;DHT22;56478;50.982;7.032;2022-12-05T17:35:15;3.49;86.33
68177;DHT22;56478;50.982;7.032;2022-12-05T17:37:41;3.46;86.42
68177;DHT22;56478;50.982;7.032;2022-12-05T17:40:07;3.46;86.27
68177;DHT22;56478;50.982;7.032;2022-12-05T17:42:32;3.43;86.42
68177;DHT22;56478;50.982;7.032;2022-12-05T17:44:58;3.53;86.47
68177;DHT22;56478;50.982;7.032;2022-12-05T17:47:23;3.49;86.25
68177;DHT22;56478;50.982;7.032;2022-12-05T17:49:49;3.47;86.00
68177;DHT22;56478;50.982;7.032;2022-12-05T17:52:15;3.47;85.76
68177;DHT22;56478;50.982;7.032;2022-12-05T17:54:41;3.52;85.84
68177;DHT22;56478;50.982;7.032;2022-12-05T17:57:06;3.42;85.79
68177;DHT22;56478;50.982;7.032;2022-12-05T17:59:32;3.43;85.82
68177;DHT22;56478;50.982;7.032;2022-12-05T18:01:57;3.43;85.96
68177;DHT22;56478;50.982;7.032;2022-12-05T18:04:23;3.50;86.00
68177;DHT22;56478;50.982;7.032;2022-12-05T18:06:48;3.53;85.82
68177;DHT22;56478;50.982;7.032;2022-12-05T18:09:14;3.49;85.63
68177;DHT22;56478;50.982;7.032;2022-12-05T18:11:39;3.49;85.76
68177;DHT22;56478;50.982;7.032;2022-12-05T18:14:05;3.49;85.82
68177;DHT22;56478;50.982;7.032;2022-12-05T18:16:30;3.47;86.40
68177;DHT22;56478;50.982;7.032;2022-12-05T18:18:56;3.43;86.46
68177;DHT22;56478;50.982;7.032;2022-12-05T18:21:22;3.46;86.03
68177;DHT22;56478;50.982;7.032;2022-12-05T18:23:47;3.47;86.23
68177;DHT22;56478;50.982;7.032;2022-12-05T18:26:13;3.50;85.74
68177;DHT22;56478;50.982;7.032;2022-12-05T18:28:39;3.47;86.61
68177;DHT22;56478;50.982;7.032;2022-12-05T18:31:11;3.52;86.48
68177;DHT22;56478;50.982;7.032;2022-12-05T18:33:39;3.50;85.81
68177;DHT22;56478;50.982;7.032;2022-12-05T18:36:10;3.59;86.37
68177;DHT22;56478;50.982;7.032;2022-12-05T18:38:36;3.57;86.40